Time;durP1;ratioP1;P1;durP2;ratioP2;P2;SDS_P1;SDS_P2;PMS_P1;PMS_P2;Temp;Humidity;BMP_temperature;BMP_pressure;BME280_temperature;BME280_humidity;BME280_pressure;Samples;Min_cycle;Max_cycle;Signal;HPM_P1;HPM_P2
2022/09/11 00:00:18;;;;;;;;;;;13.20;99.90;;;;;;5068632;28;20027;-68
2022/09/11 00:02:43;;;;;;;;;;;13.20;99.90;;;;;;5069092;28;20796;-68
2022/09/11 00:05:09;;;;;;;;;;;13.20;99.90;;;;;;5067281;28;19934;-67
2022/09/11 00:07:34;;;;;;;;;;;13.30;99.90;;;;;;5069773;28;19921;-68
2022/09/11 00:10:00;;;;;;;;;;;13.30;99.90;;;;;;5064453;28;20399;-67
2022/09/11 00:12:25;;;;;;;;;;;13.30;99.90;;;;;;5065879;28;20003;-67
2022/09/11 00:14:51;;;;;;;;;;;13.30;99.90;;;;;;5036859;28;19948;-67
2022/09/11 00:17:17;;;;;;;;;;;13.30;99.90;;;;;;5068342;28;19970;-68
2022/09/11 00:19:42;;;;;;;;;;;13.30;99.90;;;;;;5069699;28;19967;-68
2022/09/11 00:22:08;;;;;;;;;;;13.30;99.90;;;;;;5069084;28;19927;-67
2022/09/11 00:24:33;;;;;;;;;;;13.30;99.90;;;;;;5084907;28;19924;-67
2022/09/11 00:26:59;;;;;;;;;;;13.40;99.90;;;;;;5056179;28;19921;-67
2022/09/11 00:29:25;;;;;;;;;;;13.30;99.90;;;;;;5067858;28;19921;-67
2022/09/11 00:31:50;;;;;;;;;;;13.30;99.90;;;;;;5066880;28;20368;-67
2022/09/11 00:34:16;;;;;;;;;;;13.30;99.90;;;;;;5072539;28;19923;-67
2022/09/11 00:36:42;;;;;;;;;;;13.30;99.90;;;;;;5089461;28;19920;-67
2022/09/11 00:39:08;;;;;;;;;;;13.30;99.90;;;;;;5065474;28;20050;-67
2022/09/11 00:41:35;;;;;;;;;;;13.20;99.90;;;;;;5090916;28;19924;-67
2022/09/11 00:44:10;;;;;;;;;;;13.20;99.90;;;;;;5075097;28;19982;-67
2022/09/11 00:46:39;;;;;;;;;;;13.10;99.90;;;;;;5076408;28;19946;-67
2022/09/11 00:49:43;;;;;;;;;;;13.10;99.90;;;;;;5094108;28;21467;-67
2022/09/11 00:52:11;;;;;;;;;;;13.10;99.90;;;;;;4959781;28;19966;-67
2022/09/11 00:54:40;;;;;;;;;;;13.00;99.90;;;;;;4975417;28;19936;-68
2022/09/11 00:57:06;;;;;;;;;;;13.00;99.90;;;;;;5021700;28;19924;-67
2022/09/11 00:59:33;;;;;;;;;;;13.00;99.90;;;;;;5108211;28;19920;-68
2022/09/11 01:01:58;;;;;;;;;;;13.00;99.90;;;;;;5073600;28;19927;-67
2022/09/11 01:04:24;;;;;;;;;;;13.00;99.90;;;;;;5093160;28;20010;-67
2022/09/11 01:06:54;;;;;;;;;;;13.00;99.90;;;;;;5075901;28;19972;-67
2022/09/11 01:09:20;;;;;;;;;;;13.00;99.90;;;;;;5075232;28;19931;-67
2022/09/11 01:11:52;;;;;;;;;;;13.00;99.90;;;;;;5073190;28;19924;-67
2022/09/11 01:14:23;;;;;;;;;;;13.00;99.90;;;;;;5073464;28;19924;-67
2022/09/11 01:16:53;;;;;;;;;;;13.00;99.90;;;;;;5075045;28;20408;-67
2022/09/11 01:19:21;;;;;;;;;;;13.10;99.90;;;;;;5075054;28;19920;-67
2022/09/11 01:22:05;;;;;;;;;;;13.20;99.90;;;;;;5074636;28;19928;-67
2022/09/11 01:24:49;;;;;;;;;;;13.20;99.90;;;;;;5072098;28;19935;-67
2022/09/11 01:27:24;;;;;;;;;;;13.30;99.90;;;;;;5064589;28;19967;-67
2022/09/11 01:29:54;;;;;;;;;;;13.30;99.90;;;;;;5069837;28;19962;-67
2022/09/11 01:32:22;;;;;;;;;;;13.30;99.90;;;;;;5055641;28;19924;-67
2022/09/11 01:35:03;;;;;;;;;;;13.30;99.90;;;;;;5088384;28;19928;-67
2022/09/11 01:37:37;;;;;;;;;;;13.30;99.90;;;;;;5054002;28;19935;-67
2022/09/11 01:40:09;;;;;;;;;;;13.30;99.90;;;;;;5070352;28;20003;-67
2022/09/11 01:42:38;;;;;;;;;;;13.30;99.90;;;;;;5073804;28;19924;-67
2022/09/11 01:45:04;;;;;;;;;;;13.30;99.90;;;;;;5054644;28;19963;-67
2022/09/11 01:47:32;;;;;;;;;;;13.30;99.90;;;;;;5071157;28;20011;-67
2022/09/11 01:50:02;;;;;;;;;;;13.20;99.90;;;;;;5071266;28;19927;-67
2022/09/11 01:52:34;;;;;;;;;;;13.20;99.90;;;;;;5073242;28;19928;-67
2022/09/11 01:55:02;;;;;;;;;;;13.20;99.90;;;;;;5054809;28;19924;-67
2022/09/11 01:57:48;;;;;;;;;;;13.10;99.90;;;;;;5073363;28;19920;-67
2022/09/11 02:00:13;;;;;;;;;;;13.10;99.90;;;;;;5086971;28;19932;-67
2022/09/11 02:02:43;;;;;;;;;;;13.10;99.90;;;;;;5068976;28;19928;-67
2022/09/11 02:05:24;;;;;;;;;;;13.10;99.90;;;;;;5071805;28;19982;-67
2022/09/11 02:08:01;;;;;;;;;;;13.10;99.90;;;;;;5070344;28;19931;-67
2022/09/11 02:10:29;;;;;;;;;;;13.10;99.90;;;;;;5071878;28;20370;-67
2022/09/11 02:13:03;;;;;;;;;;;13.00;99.90;;;;;;5072215;28;19924;-67
2022/09/11 02:15:35;;;;;;;;;;;12.90;99.90;;;;;;5069060;28;19978;-67
2022/09/11 02:18:05;;;;;;;;;;;12.90;99.90;;;;;;5061272;28;19920;-68
2022/09/11 02:20:30;;;;;;;;;;;12.80;99.90;;;;;;5071172;28;19928;-67
2022/09/11 02:22:56;;;;;;;;;;;12.70;99.90;;;;;;5073626;28;19928;-67
2022/09/11 02:25:22;;;;;;;;;;;12.60;99.90;;;;;;5093033;28;19924;-67
2022/09/11 02:27:47;;;;;;;;;;;12.60;99.90;;;;;;5072570;28;20350;-67
2022/09/11 02:30:13;;;;;;;;;;;12.50;99.90;;;;;;5074118;28;20010;-67
2022/09/11 02:32:40;;;;;;;;;;;12.50;99.90;;;;;;5055738;28;19970;-67
2022/09/11 02:35:07;;;;;;;;;;;12.50;99.90;;;;;;5089158;28;19920;-67
2022/09/11 02:37:44;;;;;;;;;;;12.50;99.90;;;;;;5072507;28;20014;-67
2022/09/11 02:40:13;;;;;;;;;;;12.40;99.90;;;;;;5093789;28;20018;-67
2022/09/11 02:42:45;;;;;;;;;;;12.40;99.90;;;;;;5074512;28;19932;-67
2022/09/11 02:45:31;;;;;;;;;;;12.30;99.90;;;;;;5073335;28;19981;-67
2022/09/11 02:48:15;;;;;;;;;;;12.30;99.90;;;;;;5072499;28;19950;-67
2022/09/11 02:50:51;;;;;;;;;;;12.30;99.90;;;;;;5054356;28;20404;-67
2022/09/11 02:53:22;;;;;;;;;;;12.20;99.90;;;;;;5057283;28;19931;-67
2022/09/11 02:55:48;;;;;;;;;;;12.20;99.90;;;;;;5071800;28;19939;-67
2022/09/11 02:58:16;;;;;;;;;;;12.20;99.90;;;;;;5073094;28;19924;-67
2022/09/11 03:00:42;;;;;;;;;;;12.10;99.90;;;;;;5072624;28;19920;-67
2022/09/11 03:03:07;;;;;;;;;;;12.10;99.90;;;;;;5070746;28;19927;-67
2022/09/11 03:05:33;;;;;;;;;;;12.10;99.90;;;;;;5059204;28;20027;-67
2022/09/11 03:07:58;;;;;;;;;;;12.10;99.90;;;;;;5089696;28;20020;-67
2022/09/11 03:10:26;;;;;;;;;;;12.10;99.90;;;;;;5091716;28;19924;-67
2022/09/11 03:12:52;;;;;;;;;;;12.10;99.90;;;;;;5071393;28;19927;-67
2022/09/11 03:15:19;;;;;;;;;;;12.10;99.90;;;;;;5089251;28;19923;-67
2022/09/11 03:17:45;;;;;;;;;;;12.00;99.90;;;;;;5074425;28;19920;-67
2022/09/11 03:20:10;;;;;;;;;;;12.00;99.90;;;;;;5069470;28;19931;-67
2022/09/11 03:22:36;;;;;;;;;;;11.90;99.90;;;;;;5074419;28;19924;-67
2022/09/11 03:25:01;;;;;;;;;;;11.90;99.90;;;;;;5092457;28;19927;-67
2022/09/11 03:27:27;;;;;;;;;;;11.90;99.90;;;;;;5074197;28;19927;-67
2022/09/11 03:29:52;;;;;;;;;;;11.90;99.90;;;;;;5080166;28;19919;-67
2022/09/11 03:32:18;;;;;;;;;;;11.90;99.90;;;;;;5086863;28;19920;-67
2022/09/11 03:34:43;;;;;;;;;;;11.80;99.90;;;;;;5072831;28;19920;-67
2022/09/11 03:37:09;;;;;;;;;;;11.80;99.90;;;;;;5070209;28;19938;-67
2022/09/11 03:39:34;;;;;;;;;;;11.70;99.90;;;;;;5056610;28;19921;-67
2022/09/11 03:42:00;;;;;;;;;;;11.70;99.90;;;;;;5054949;28;19928;-67
2022/09/11 03:44:26;;;;;;;;;;;11.70;99.90;;;;;;5090203;28;19928;-67
2022/09/11 03:46:52;;;;;;;;;;;11.70;99.90;;;;;;5072170;28;20376;-67
2022/09/11 03:49:19;;;;;;;;;;;11.70;99.90;;;;;;5071381;28;20420;-67
2022/09/11 03:51:46;;;;;;;;;;;11.70;99.90;;;;;;5049223;28;20018;-67
2022/09/11 03:54:14;;;;;;;;;;;11.70;99.90;;;;;;5071797;28;19920;-67
2022/09/11 03:56:39;;;;;;;;;;;11.70;99.90;;;;;;5083246;28;19920;-67
2022/09/11 03:59:05;;;;;;;;;;;11.70;99.90;;;;;;5089754;28;19924;-67
2022/09/11 04:01:30;;;;;;;;;;;11.80;99.90;;;;;;5071028;28;19928;-67
2022/09/11 04:03:56;;;;;;;;;;;11.80;99.90;;;;;;5072205;28;19928;-67
2022/09/11 04:06:21;;;;;;;;;;;11.90;99.90;;;;;;5091542;28;19920;-67
2022/09/11 04:08:47;;;;;;;;;;;11.90;99.90;;;;;;5059531;28;19985;-67
2022/09/11 04:11:13;;;;;;;;;;;11.90;99.90;;;;;;5090720;28;19920;-67
2022/09/11 04:13:39;;;;;;;;;;;12.00;99.90;;;;;;5056428;28;19924;-67
2022/09/11 04:16:06;;;;;;;;;;;11.90;99.90;;;;;;5070065;28;19947;-67
2022/09/11 04:18:33;;;;;;;;;;;12.00;99.90;;;;;;5070523;28;19957;-67
2022/09/11 04:21:02;;;;;;;;;;;11.90;99.90;;;;;;5072821;28;19927;-67
2022/09/11 04:23:28;;;;;;;;;;;11.90;99.90;;;;;;5086716;28;19935;-67
2022/09/11 04:25:53;;;;;;;;;;;11.90;99.90;;;;;;5090101;28;20301;-67
2022/09/11 04:28:19;;;;;;;;;;;11.90;99.90;;;;;;5072359;28;20050;-66
2022/09/11 04:30:44;;;;;;;;;;;11.90;99.90;;;;;;5054867;28;20339;-67
2022/09/11 04:33:10;;;;;;;;;;;11.90;99.90;;;;;;5071267;28;19947;-67
2022/09/11 04:35:36;;;;;;;;;;;11.90;99.90;;;;;;5070429;28;19924;-67
2022/09/11 04:38:01;;;;;;;;;;;11.80;99.90;;;;;;5073074;28;20054;-67
2022/09/11 04:40:27;;;;;;;;;;;11.80;99.90;;;;;;5070255;28;20015;-67
2022/09/11 04:42:52;;;;;;;;;;;11.80;99.90;;;;;;5055876;28;19924;-67
2022/09/11 04:45:18;;;;;;;;;;;11.90;99.90;;;;;;5072823;28;20073;-67
2022/09/11 04:47:43;;;;;;;;;;;11.90;99.90;;;;;;5071016;28;19939;-67
2022/09/11 04:50:09;;;;;;;;;;;11.90;99.90;;;;;;5054128;28;20013;-67
2022/09/11 04:52:34;;;;;;;;;;;11.90;99.90;;;;;;5071048;28;19920;-67
2022/09/11 04:55:00;;;;;;;;;;;11.90;99.90;;;;;;5055145;28;20122;-67
2022/09/11 04:57:28;;;;;;;;;;;11.90;99.90;;;;;;5070602;28;20353;-67
2022/09/11 04:59:54;;;;;;;;;;;11.80;99.90;;;;;;5072094;28;19966;-67
2022/09/11 05:02:20;;;;;;;;;;;11.80;99.90;;;;;;5064319;28;20320;-67
2022/09/11 05:04:46;;;;;;;;;;;11.80;99.90;;;;;;5091137;28;20011;-67
2022/09/11 05:07:14;;;;;;;;;;;11.80;99.90;;;;;;5069856;28;20339;-67
2022/09/11 05:09:40;;;;;;;;;;;11.80;99.90;;;;;;5067754;28;19931;-67
2022/09/11 05:12:05;;;;;;;;;;;11.80;99.90;;;;;;5089702;28;19920;-67
2022/09/11 05:14:31;;;;;;;;;;;11.80;99.90;;;;;;5088200;28;20366;-67
2022/09/11 05:16:57;;;;;;;;;;;11.80;99.90;;;;;;5066440;28;19920;-67
2022/09/11 05:19:24;;;;;;;;;;;11.80;99.90;;;;;;5068060;28;19930;-67
2022/09/11 05:21:49;;;;;;;;;;;11.80;99.90;;;;;;5071815;28;20369;-67
2022/09/11 05:24:15;;;;;;;;;;;11.80;99.90;;;;;;5061030;28;19931;-67
2022/09/11 05:26:41;;;;;;;;;;;11.90;99.90;;;;;;5090904;28;20005;-67
2022/09/11 05:29:09;;;;;;;;;;;11.90;99.90;;;;;;5075866;28;19930;-67
2022/09/11 05:31:35;;;;;;;;;;;11.90;99.90;;;;;;5078435;28;19935;-67
2022/09/11 05:34:02;;;;;;;;;;;11.90;99.90;;;;;;5102262;28;19924;-67
2022/09/11 05:36:29;;;;;;;;;;;12.00;99.90;;;;;;5079039;28;20569;-67
2022/09/11 05:38:55;;;;;;;;;;;12.00;99.90;;;;;;5075023;28;19920;-67
2022/09/11 05:41:21;;;;;;;;;;;12.00;99.90;;;;;;5093633;28;19931;-67
2022/09/11 05:43:46;;;;;;;;;;;12.10;99.90;;;;;;5093506;28;19935;-66
2022/09/11 05:46:13;;;;;;;;;;;12.10;99.90;;;;;;5096099;28;19957;-67
2022/09/11 05:48:39;;;;;;;;;;;12.20;99.90;;;;;;5071701;28;19928;-67
2022/09/11 05:51:06;;;;;;;;;;;12.30;99.90;;;;;;5086525;28;20755;-67
2022/09/11 05:53:32;;;;;;;;;;;12.40;99.90;;;;;;5082768;28;19965;-67
2022/09/11 05:56:04;;;;;;;;;;;12.40;99.90;;;;;;5080735;28;19966;-67
2022/09/11 05:58:30;;;;;;;;;;;12.50;99.90;;;;;;5057973;28;19933;-67
2022/09/11 06:01:07;;;;;;;;;;;12.60;99.90;;;;;;5074954;28;19920;-67
2022/09/11 06:03:33;;;;;;;;;;;12.70;99.90;;;;;;5091774;28;19982;-67
2022/09/11 06:06:00;;;;;;;;;;;12.70;99.90;;;;;;5059191;28;19943;-67
2022/09/11 06:08:25;;;;;;;;;;;12.80;99.90;;;;;;5093930;28;19924;-67
2022/09/11 06:10:51;;;;;;;;;;;12.90;99.90;;;;;;5076149;28;20040;-67
2022/09/11 06:13:19;;;;;;;;;;;13.00;99.90;;;;;;5075670;28;20350;-67
2022/09/11 06:15:45;;;;;;;;;;;13.00;99.90;;;;;;5075883;28;19920;-67
2022/09/11 06:18:11;;;;;;;;;;;13.10;99.90;;;;;;5070983;28;19927;-66
2022/09/11 06:20:36;;;;;;;;;;;13.10;99.90;;;;;;5092405;28;19920;-67
2022/09/11 06:23:02;;;;;;;;;;;13.30;99.90;;;;;;5093425;28;19935;-67
2022/09/11 06:25:27;;;;;;;;;;;13.50;99.90;;;;;;5075526;28;20506;-67
2022/09/11 06:27:54;;;;;;;;;;;13.90;99.90;;;;;;5075361;28;20025;-67
2022/09/11 06:30:20;;;;;;;;;;;14.70;99.90;;;;;;5075545;28;19934;-67
2022/09/11 06:32:47;;;;;;;;;;;15.60;99.90;;;;;;5093699;28;20273;-67
2022/09/11 06:35:12;;;;;;;;;;;16.70;99.90;;;;;;5075576;28;20442;-67
2022/09/11 06:37:38;;;;;;;;;;;17.70;99.90;;;;;;5072516;28;19924;-67
2022/09/11 06:40:03;;;;;;;;;;;18.40;99.90;;;;;;5048012;22;19926;-70
2022/09/11 06:42:29;;;;;;;;;;;19.10;99.90;;;;;;5010851;28;19932;-70
2022/09/11 06:44:55;;;;;;;;;;;19.60;99.90;;;;;;5013352;28;20297;-69
2022/09/11 06:47:20;;;;;;;;;;;19.90;99.90;;;;;;4998559;28;20019;-70
2022/09/11 06:49:46;;;;;;;;;;;20.50;99.90;;;;;;5015100;28;19928;-70
2022/09/11 06:52:11;;;;;;;;;;;20.90;99.90;;;;;;5009777;28;19967;-71
2022/09/11 06:54:37;;;;;;;;;;;20.70;99.90;;;;;;5013691;28;20258;-70
2022/09/11 06:57:02;;;;;;;;;;;21.00;99.90;;;;;;5020081;28;19921;-70
2022/09/11 06:59:28;;;;;;;;;;;21.70;99.90;;;;;;5010074;28;19928;-70
2022/09/11 07:01:54;;;;;;;;;;;22.40;99.90;;;;;;5006008;28;19926;-69
2022/09/11 07:04:19;;;;;;;;;;;22.90;99.90;;;;;;5009378;28;19929;-69
2022/09/11 07:06:45;;;;;;;;;;;23.50;99.90;;;;;;5012627;28;19975;-70
2022/09/11 07:09:10;;;;;;;;;;;24.10;99.90;;;;;;5031852;28;19964;-70
2022/09/11 07:11:37;;;;;;;;;;;24.60;99.90;;;;;;5014480;28;20027;-70
2022/09/11 07:14:05;;;;;;;;;;;25.10;99.80;;;;;;5012148;28;19925;-70
2022/09/11 07:16:30;;;;;;;;;;;25.40;97.10;;;;;;5013196;28;19921;-70
2022/09/11 07:18:57;;;;;;;;;;;25.90;98.00;;;;;;5013347;28;20020;-70
2022/09/11 07:21:24;;;;;;;;;;;26.20;96.20;;;;;;5029710;28;20310;-70
2022/09/11 07:23:53;;;;;;;;;;;25.80;95.10;;;;;;5012390;28;19929;-70
2022/09/11 07:26:19;;;;;;;;;;;26.40;96.00;;;;;;5010417;28;19929;-70
2022/09/11 07:28:47;;;;;;;;;;;26.60;96.20;;;;;;4988002;28;19928;-70
2022/09/11 07:31:14;;;;;;;;;;;26.50;95.10;;;;;;5007537;28;19971;-70
2022/09/11 07:33:41;;;;;;;;;;;26.70;94.60;;;;;;5007287;28;19928;-70
2022/09/11 07:36:15;;;;;;;;;;;26.40;94.70;;;;;;5004109;28;20428;-70
2022/09/11 07:38:42;;;;;;;;;;;25.90;97.10;;;;;;5029358;28;19931;-70
2022/09/11 07:41:08;;;;;;;;;;;24.90;97.10;;;;;;5032855;28;20254;-70
2022/09/11 07:43:34;;;;;;;;;;;24.00;98.70;;;;;;5014411;28;19925;-70
2022/09/11 07:46:00;;;;;;;;;;;23.40;99.90;;;;;;5014405;28;19955;-70
2022/09/11 07:48:25;;;;;;;;;;;22.90;99.90;;;;;;5014114;28;19924;-69
2022/09/11 07:51:01;;;;;;;;;;;21.90;99.90;;;;;;5013736;28;19921;-70
2022/09/11 07:53:27;;;;;;;;;;;21.80;99.90;;;;;;5013666;28;19983;-70
2022/09/11 07:55:54;;;;;;;;;;;21.60;99.90;;;;;;5014304;28;20004;-70
2022/09/11 07:58:19;;;;;;;;;;;21.30;99.90;;;;;;5014157;28;20318;-70
2022/09/11 08:00:45;;;;;;;;;;;20.70;99.90;;;;;;5011782;28;19921;-69
2022/09/11 08:03:10;;;;;;;;;;;20.40;99.90;;;;;;5014324;28;20378;-70
2022/09/11 08:05:36;;;;;;;;;;;20.50;99.90;;;;;;5031990;28;19933;-70
2022/09/11 08:08:01;;;;;;;;;;;20.40;99.90;;;;;;5012292;28;19929;-70
2022/09/11 08:10:26;;;;;;;;;;;20.20;99.90;;;;;;5013059;28;19929;-69
2022/09/11 08:12:52;;;;;;;;;;;20.10;99.90;;;;;;5014297;28;19959;-70
2022/09/11 08:15:20;;;;;;;;;;;20.20;99.90;;;;;;5010902;28;20262;-69
2022/09/11 08:17:46;;;;;;;;;;;20.10;99.90;;;;;;5010147;28;19921;-69
2022/09/11 08:20:12;;;;;;;;;;;20.10;99.90;;;;;;4995502;28;19928;-70
2022/09/11 08:22:38;;;;;;;;;;;20.00;99.90;;;;;;4989562;28;19925;-69
2022/09/11 08:25:04;;;;;;;;;;;19.90;99.90;;;;;;5000378;28;19925;-69
2022/09/11 08:27:29;;;;;;;;;;;19.70;99.90;;;;;;5025263;28;19925;-69
2022/09/11 08:29:55;;;;;;;;;;;19.70;99.90;;;;;;5008586;28;19921;-70
2022/09/11 08:32:20;;;;;;;;;;;20.00;99.90;;;;;;5013227;28;19964;-70
2022/09/11 08:34:46;;;;;;;;;;;20.20;99.90;;;;;;5012175;28;19921;-69
2022/09/11 08:37:12;;;;;;;;;;;20.50;99.90;;;;;;5012295;28;19983;-69
2022/09/11 08:39:38;;;;;;;;;;;20.90;99.90;;;;;;5010407;28;19990;-70
2022/09/11 08:42:22;;;;;;;;;;;20.90;99.90;;;;;;5006707;28;20236;-70
2022/09/11 08:44:49;;;;;;;;;;;21.10;99.90;;;;;;5008867;28;19929;-69
2022/09/11 08:47:17;;;;;;;;;;;21.50;99.90;;;;;;5010303;28;19921;-70
2022/09/11 08:49:47;;;;;;;;;;;21.70;99.90;;;;;;5011455;28;20355;-70
2022/09/11 08:52:14;;;;;;;;;;;21.90;99.90;;;;;;5014473;28;20696;-70
2022/09/11 08:54:41;;;;;;;;;;;21.90;99.90;;;;;;5027174;28;19921;-69
2022/09/11 08:57:15;;;;;;;;;;;21.70;99.90;;;;;;5012463;28;20602;-69
2022/09/11 08:59:49;;;;;;;;;;;21.40;99.90;;;;;;5011747;28;19932;-70
2022/09/11 09:02:18;;;;;;;;;;;21.30;99.90;;;;;;5022112;28;19925;-69
2022/09/11 09:04:59;;;;;;;;;;;21.00;99.90;;;;;;5011772;28;19936;-69
2022/09/11 09:07:24;;;;;;;;;;;20.90;99.90;;;;;;5016605;28;19940;-69
2022/09/11 09:10:02;;;;;;;;;;;20.70;99.90;;;;;;5017044;28;19921;-69
2022/09/11 09:12:39;;;;;;;;;;;20.80;99.90;;;;;;5015117;28;19921;-69
2022/09/11 09:15:16;;;;;;;;;;;20.90;99.90;;;;;;5015504;28;19929;-70
2022/09/11 09:17:45;;;;;;;;;;;20.90;99.90;;;;;;5027455;28;19925;-70
2022/09/11 09:20:31;;;;;;;;;;;20.90;99.90;;;;;;5024647;28;19921;-69
2022/09/11 09:23:00;;;;;;;;;;;20.90;99.90;;;;;;5002587;28;19925;-70
2022/09/11 09:25:25;;;;;;;;;;;20.90;99.90;;;;;;5001203;28;19929;-71
2022/09/11 09:28:00;;;;;;;;;;;21.00;99.90;;;;;;5013186;28;19925;-70
2022/09/11 09:30:27;;;;;;;;;;;21.10;99.90;;;;;;5013188;28;19971;-70
2022/09/11 09:32:56;;;;;;;;;;;21.30;99.90;;;;;;5014795;28;19929;-69
2022/09/11 09:35:23;;;;;;;;;;;21.40;99.90;;;;;;5012455;28;20878;-69
2022/09/11 09:37:49;;;;;;;;;;;21.50;99.90;;;;;;5014670;28;19921;-68
2022/09/11 09:40:16;;;;;;;;;;;21.60;99.90;;;;;;5014580;28;19932;-70
2022/09/11 09:43:09;;;;;;;;;;;21.80;99.90;;;;;;5013937;28;19929;-70
2022/09/11 09:45:43;;;;;;;;;;;21.40;99.90;;;;;;4996577;28;20008;-70
2022/09/11 09:48:10;;;;;;;;;;;21.30;99.90;;;;;;4995869;28;19932;-69
2022/09/11 09:50:40;;;;;;;;;;;21.50;99.90;;;;;;5029757;28;19925;-70
2022/09/11 09:53:28;;;;;;;;;;;21.50;99.90;;;;;;5015430;28;20351;-70
2022/09/11 09:55:55;;;;;;;;;;;21.60;99.90;;;;;;5016427;28;19921;-70
2022/09/11 09:58:23;;;;;;;;;;;21.70;99.90;;;;;;4999797;28;20654;-70
2022/09/11 10:00:49;;;;;;;;;;;21.60;99.90;;;;;;5016841;28;20028;-69
2022/09/11 10:03:19;;;;;;;;;;;21.60;99.90;;;;;;5016530;28;20548;-69
2022/09/11 10:05:46;;;;;;;;;;;21.70;99.90;;;;;;4996004;28;19932;-70
2022/09/11 10:08:24;;;;;;;;;;;21.80;99.90;;;;;;5010034;28;19932;-69
2022/09/11 10:10:56;;;;;;;;;;;21.70;99.90;;;;;;5016172;28;19957;-70
2022/09/11 10:13:23;;;;;;;;;;;21.80;99.90;;;;;;5012247;28;20019;-69
2022/09/11 10:15:50;;;;;;;;;;;21.90;99.90;;;;;;5030901;28;19956;-70
2022/09/11 10:18:21;;;;;;;;;;;22.20;99.90;;;;;;4994718;28;19934;-70
2022/09/11 10:20:47;;;;;;;;;;;22.40;99.90;;;;;;5011778;28;20287;-69
2022/09/11 10:23:26;;;;;;;;;;;22.60;99.90;;;;;;5010051;28;19987;-70
2022/09/11 10:25:52;;;;;;;;;;;22.70;99.90;;;;;;5014286;28;19952;-70
2022/09/11 10:28:21;;;;;;;;;;;22.90;99.90;;;;;;5012688;28;20353;-70
2022/09/11 10:30:52;;;;;;;;;;;23.00;98.50;;;;;;5004791;28;19967;-70
2022/09/11 10:33:17;;;;;;;;;;;23.10;99.90;;;;;;4993315;28;20020;-70
2022/09/11 10:35:49;;;;;;;;;;;23.30;99.10;;;;;;5015631;28;20027;-70
2022/09/11 10:38:17;;;;;;;;;;;23.60;97.70;;;;;;5008404;28;19925;-70
2022/09/11 10:41:06;;;;;;;;;;;23.80;96.60;;;;;;5012308;28;19925;-70
2022/09/11 10:43:40;;;;;;;;;;;24.00;95.90;;;;;;5010907;28;20148;-70
2022/09/11 10:46:20;;;;;;;;;;;24.20;95.50;;;;;;5028902;28;20014;-69
2022/09/11 10:48:54;;;;;;;;;;;24.30;97.00;;;;;;5012307;28;19925;-69
2022/09/11 10:51:20;;;;;;;;;;;24.30;96.90;;;;;;4993649;28;19925;-70
2022/09/11 10:54:03;;;;;;;;;;;23.80;94.20;;;;;;5015077;28;19921;-70
2022/09/11 10:56:29;;;;;;;;;;;23.40;94.30;;;;;;5012067;28;20439;-69
2022/09/11 10:58:58;;;;;;;;;;;22.80;94.90;;;;;;5014525;28;19921;-70
2022/09/11 11:01:24;;;;;;;;;;;22.80;95.20;;;;;;5011775;28;19980;-69
2022/09/11 11:03:51;;;;;;;;;;;23.00;96.60;;;;;;5012558;28;19925;-70
2022/09/11 11:06:25;;;;;;;;;;;23.00;97.30;;;;;;5030841;28;19925;-69
2022/09/11 11:09:04;;;;;;;;;;;23.00;98.00;;;;;;5027357;28;20437;-70
2022/09/11 11:11:45;;;;;;;;;;;22.90;98.10;;;;;;5013158;28;21451;-70
2022/09/11 11:14:14;;;;;;;;;;;22.90;97.20;;;;;;5014570;28;20015;-70
2022/09/11 11:16:52;;;;;;;;;;;22.70;97.60;;;;;;5013196;28;19928;-69
2022/09/11 11:19:19;;;;;;;;;;;22.20;98.50;;;;;;5011353;28;20382;-70
2022/09/11 11:21:53;;;;;;;;;;;21.90;99.60;;;;;;5009122;28;19935;-69
2022/09/11 11:24:37;;;;;;;;;;;21.60;99.90;;;;;;5009372;28;20054;-69
2022/09/11 11:27:03;;;;;;;;;;;21.40;99.90;;;;;;5010575;28;19959;-69
2022/09/11 11:29:32;;;;;;;;;;;21.40;98.80;;;;;;5029032;28;20012;-69
2022/09/11 11:32:07;;;;;;;;;;;21.10;99.90;;;;;;5007183;28;19921;-69
2022/09/11 11:34:45;;;;;;;;;;;21.00;99.90;;;;;;5011581;28;20390;-69
2022/09/11 11:37:16;;;;;;;;;;;20.90;99.90;;;;;;5012985;28;20375;-69
2022/09/11 11:39:53;;;;;;;;;;;20.70;99.90;;;;;;5012529;28;19929;-69
2022/09/11 11:42:22;;;;;;;;;;;20.60;99.90;;;;;;5014107;28;20026;-69
2022/09/11 11:44:57;;;;;;;;;;;20.50;99.90;;;;;;5013710;28;19932;-69
2022/09/11 11:47:29;;;;;;;;;;;20.50;99.90;;;;;;5017547;28;19921;-69
2022/09/11 11:50:11;;;;;;;;;;;20.40;99.90;;;;;;5031231;28;20382;-69
2022/09/11 11:52:40;;;;;;;;;;;20.30;99.90;;;;;;5003629;28;19929;-69
2022/09/11 11:55:13;;;;;;;;;;;20.10;99.90;;;;;;5009240;28;19928;-69
2022/09/11 11:57:40;;;;;;;;;;;20.20;99.90;;;;;;5009523;28;19931;-69
2022/09/11 12:00:13;;;;;;;;;;;20.20;99.90;;;;;;4987989;28;19925;-69
2022/09/11 12:02:45;;;;;;;;;;;20.10;99.90;;;;;;5008644;28;20382;-70
2022/09/11 12:05:14;;;;;;;;;;;20.10;99.90;;;;;;5010881;28;19929;-70
2022/09/11 12:07:40;;;;;;;;;;;20.10;99.90;;;;;;5004714;28;19960;-69
2022/09/11 12:10:06;;;;;;;;;;;20.30;99.90;;;;;;4995490;28;20006;-70
2022/09/11 12:12:43;;;;;;;;;;;20.40;99.90;;;;;;5011345;28;19983;-69
2022/09/11 12:15:16;;;;;;;;;;;20.60;99.90;;;;;;5010761;28;19932;-69
2022/09/11 12:17:42;;;;;;;;;;;20.70;99.90;;;;;;5012240;28;19961;-69
2022/09/11 12:20:08;;;;;;;;;;;20.80;99.90;;;;;;5013862;28;19960;-68
2022/09/11 12:22:37;;;;;;;;;;;21.00;99.90;;;;;;5012751;28;19921;-69
2022/09/11 12:25:04;;;;;;;;;;;21.00;99.90;;;;;;4992808;28;19925;-69
2022/09/11 12:27:32;;;;;;;;;;;21.10;99.90;;;;;;5011909;28;19928;-70
2022/09/11 12:30:06;;;;;;;;;;;21.10;99.90;;;;;;5010509;28;19925;-69
2022/09/11 12:32:45;;;;;;;;;;;21.20;99.90;;;;;;5009419;28;19928;-69
2022/09/11 12:35:18;;;;;;;;;;;21.30;99.90;;;;;;4991758;28;19975;-69
2022/09/11 12:37:47;;;;;;;;;;;21.50;99.90;;;;;;5013208;28;19921;-70
2022/09/11 12:40:37;;;;;;;;;;;21.70;99.90;;;;;;5012278;28;20012;-69
2022/09/11 12:43:22;;;;;;;;;;;21.80;99.90;;;;;;4994287;28;19976;-70
2022/09/11 12:45:47;;;;;;;;;;;21.90;99.90;;;;;;5010160;28;19996;-70
2022/09/11 12:48:15;;;;;;;;;;;21.90;99.90;;;;;;4993272;28;20009;-69
2022/09/11 12:50:48;;;;;;;;;;;22.00;99.30;;;;;;5011675;28;19976;-69
2022/09/11 12:53:15;;;;;;;;;;;22.10;99.90;;;;;;5012145;28;19927;-70
2022/09/11 12:55:49;;;;;;;;;;;22.10;99.60;;;;;;5009549;28;19926;-69
2022/09/11 12:58:17;;;;;;;;;;;22.00;99.90;;;;;;5006769;28;19925;-70
2022/09/11 13:00:44;;;;;;;;;;;22.10;99.90;;;;;;5002387;28;19921;-70
2022/09/11 13:03:21;;;;;;;;;;;22.20;99.30;;;;;;5009229;28;19936;-69
2022/09/11 13:05:54;;;;;;;;;;;22.40;98.70;;;;;;5008141;28;19929;-70
2022/09/11 13:08:24;;;;;;;;;;;22.40;99.90;;;;;;5003480;28;19921;-69
2022/09/11 13:10:50;;;;;;;;;;;22.40;98.80;;;;;;5004329;28;19932;-70
2022/09/11 13:13:39;;;;;;;;;;;22.30;99.90;;;;;;5000264;28;20271;-67
2022/09/11 13:16:20;;;;;;;;;;;22.30;99.30;;;;;;5004596;28;20020;-67
2022/09/11 13:18:46;;;;;;;;;;;22.40;99.90;;;;;;4995506;28;19928;-67
2022/09/11 13:21:13;;;;;;;;;;;22.50;98.00;;;;;;5000746;28;19926;-67
2022/09/11 13:23:41;;;;;;;;;;;22.60;99.40;;;;;;5012454;28;19933;-67
2022/09/11 13:26:07;;;;;;;;;;;22.60;98.90;;;;;;5006835;28;19964;-67
2022/09/11 13:28:40;;;;;;;;;;;22.60;99.50;;;;;;5012927;28;20337;-67
2022/09/11 13:31:05;;;;;;;;;;;22.70;97.40;;;;;;5003382;28;19925;-67
2022/09/11 13:33:31;;;;;;;;;;;22.60;98.90;;;;;;5001707;28;20290;-67
2022/09/11 13:35:58;;;;;;;;;;;22.70;99.00;;;;;;5008410;28;19921;-67
2022/09/11 13:38:26;;;;;;;;;;;22.70;98.40;;;;;;5013626;28;20497;-67
2022/09/11 13:40:59;;;;;;;;;;;22.90;98.20;;;;;;5032626;28;19921;-67
2022/09/11 13:43:30;;;;;;;;;;;23.00;97.20;;;;;;5015081;28;19972;-67
2022/09/11 13:46:29;;;;;;;;;;;23.20;97.70;;;;;;5013308;28;19922;-67
2022/09/11 13:49:01;;;;;;;;;;;23.10;97.20;;;;;;4978977;28;19928;-67
2022/09/11 13:51:31;;;;;;;;;;;23.20;96.90;;;;;;5013319;28;20012;-67
2022/09/11 13:54:07;;;;;;;;;;;23.10;97.20;;;;;;5010295;28;19926;-67
2022/09/11 13:56:46;;;;;;;;;;;23.00;98.00;;;;;;5008630;28;19932;-67
2022/09/11 13:59:30;;;;;;;;;;;23.00;99.00;;;;;;5023720;28;19921;-67
2022/09/11 14:01:59;;;;;;;;;;;23.10;99.70;;;;;;4994413;28;19921;-67
2022/09/11 14:04:26;;;;;;;;;;;23.00;99.70;;;;;;5011054;28;19929;-68
2022/09/11 14:06:51;;;;;;;;;;;23.10;98.60;;;;;;5015945;28;19951;-68
2022/09/11 14:09:18;;;;;;;;;;;23.00;98.70;;;;;;5016062;28;20649;-68
2022/09/11 14:11:44;;;;;;;;;;;23.10;98.80;;;;;;5010787;28;20374;-67
2022/09/11 14:14:09;;;;;;;;;;;23.20;98.90;;;;;;5008481;28;19922;-68
2022/09/11 14:16:43;;;;;;;;;;;23.40;97.50;;;;;;5021027;28;19956;-68
2022/09/11 14:19:15;;;;;;;;;;;23.50;97.60;;;;;;5010825;28;19927;-68
2022/09/11 14:21:45;;;;;;;;;;;23.60;97.70;;;;;;5028077;28;19921;-68
2022/09/11 14:24:24;;;;;;;;;;;23.60;96.00;;;;;;5016283;28;20375;-68
2022/09/11 14:26:50;;;;;;;;;;;23.70;96.30;;;;;;5026011;28;19965;-68